Página principal
METAR-TAF:

METAR-TAF

Aeroportos :

Xian, China

Aeroporto Internacional de Xi'an Xianyang

latitude: 34-26N, longitude: 108-45E, altura: 479 m

Observação actual do tempo

O boletim foi feito há 27 minutos, às 17:00 UTC
Vento calmo
Temperatura 24°C
Humidade 69%
Pressão 1006 hPa
Visibilidade 10 km ou mais
sem nuvens abaixo de 1500 metros e sem cumulonimbus

METAR: ZLXY 281700Z 00000MPS CAVOK 24/18 Q1006 NOSIG

Hora: 01:27 (17:27 UTC)

Previsão

O boletim foi feito há 8 horas e 10 minutos, às 09:17 UTC
Previsão válida de 28 às 12 UTC a 29 às 12 UTC
Vento 6 kt de este
Visibilidade: 6000 m
Temporariamente
de 29 às 09 UTC a 29 às 12 UTC
Poucas nuvensa uma altura de 4000 ft, Cumulonimbus.
trovoada, chuva

TAF: ZLXY 280917Z 2812/2912 08003MPS 6000 NSC TX38/2908Z TN21/2821Z TEMPO 2909/2912 TSRA FEW040CB

Observações e previsões do tempo de mais de 4000 aeroportos (mensagens METAR e TAF).

As estações disponíveis são os pontos amarelos e vermelhos sobre o mapa.

Mova o rato sobre o mapa para ver o nome da estação.

Depois clique no ponto para visualizar as observações e previsões meteorológicas.

Para alterar o mapa : clique nos botões verdes com uma cruz preta para aumentar o zoom; no botão verde com uma pitada de zoom; ou nas setas verdes para mapas adjacentes.


METAR-TAF: